Jump to content


DELTA AIRLINES FLIGHT DL399 FLOWN ON 06-11-2017 BY CAPTAIN JIM BOERMAN

Pilot StatsCaptain Jim Boerman (LDP136) • 4,511.1 total hours • 1,375 total flights [View Logbook]
FLIGHT DETAILS
StatusReceived and approved on 2017-06-11 at 13:06:38
Origin AirportPalm Beach Intl (KPBI) • West Palm Beach, Florida, United States (19 feet MSL)
Filed Flight PlanKPBI BLUFI J45 TRV J79 OMN J45 AMG J46 VXV J99 IIU J89 OBK J90 BRIBE J30 ODI J36 GEP KMSP
Destination AirportMinneapolis-St Paul Intl (KMSP) • Minneapolis, Minnesota, United States (841 feet MSL)
Alternate AirportRochester Intl (KRST) • Rochester, Minnesota, United States (1,317 feet MSL)
AirlineDelta Airlines
AircraftBoeing 737-800 | Winglets (73H / B737-800)
FS Aircraft UsedBoeing 737-832NGX Delta Air Lines Winglets
Cruising AltitudeFL360
Distance Flown1,262 nautical miles
Passengers Onboard97 passengers (59.88% full)
DEPARTURE DETAILS
Time Out09:25:06
Taxi Data165,572 lbs total with 33,512 lbs of fuel onboard
Takeoff Data09:40:41 (16 minutes after leaving gate/ramp) • 164,706 lbs total • 11° pitch at 161 knots
Departure METARKPBI 111153Z 11010KT 10SM FEW013 BKN250 28/24 A3011 RMK AO2 SLP196 70002 T02780244 10278 20261 51008 $
ARRIVAL DETAILS
Landing Data12:01:09 • 145,590 lbs total • 4° pitch doing 130 knots at a rate of -176.09 feet/minute with 13,080 lbs of fuel onboard
Time In12:10:30 (9 minutes after landing)
Ramp Weight145,140 lbs total
Total Fuel Used20,432 lbs
Total Block Time03:37:33 (3.6 hours) while 25 minutes were spent on the ground
Arrival METARKMSP 111653Z 08006KT 10SM SCT010 BKN065 OVC150 18/16 A2974 RMK AO2 RAE12 TSE07 SLP068 P0004 T01780156 $
MISCELLANEOUS DETAILS
LiveDISPATCH Version4.8.3.1
FS Version
FSUIPC Version4.93
OS VersionWindows 7 32-bit
Screen Resolution1920 x 1080
Pilot's CommentsNo Comments Reported
FLIGHT MAP